0 Max
0 km/h
0 Mini

LFMY 262130Z AUTO 03001KT 9999 ///CB 09/08 Q1002

TAF LFMY 261643Z 2616/2715 CNL